Time;durP1;ratioP1;P1;durP2;ratioP2;P2;SDS_P1;SDS_P2;PMS_P1;PMS_P2;Temp;Humidity;BMP_temperature;BMP_pressure;BME280_temperature;BME280_humidity;BME280_pressure;Samples;Min_cycle;Max_cycle;Signal;HPM_P1;HPM_P2
2023/05/05 00:16:27;;;;;;;;;;;;;;;;;;4998790;28;19996;-87
2023/05/05 00:19:02;;;;;;;;;;;;;;;;;;4999676;28;19942;-86
2023/05/05 00:21:28;;;;;;;;;;;;;;;;;;4998851;28;19926;-87
2023/05/05 00:23:58;;;;;;;;;;;;;;;;;;4983877;28;19910;-86
2023/05/05 00:26:29;;;;;;;;;;;;;;;;;;4998415;28;19937;-86
2023/05/05 00:28:59;;;;;;;;;;;;;;;;;;4999079;28;19930;-86
2023/05/05 00:31:27;;;;;;;;;;;;;;;;;;4981988;28;19906;-85
2023/05/05 00:33:54;;;;;;;;;;;;;;;;;;4999735;28;20304;-86
2023/05/05 00:38:59;;;;;;;;;;;;;;;;;;5076916;23;19910;-92
2023/05/05 00:41:41;;;;;;;;;;;;;;;;;;5003286;28;19955;-90
2023/05/05 01:04:55;;;;;;;;;;;;;;;;;;5329538;23;19998;-91
2023/05/05 01:07:21;;;;;;;;;;;;;;;;;;4982962;28;19910;-91
2023/05/05 01:20:15;;;;;;;;;;;;;;;;;;5479427;23;19949;-91
2023/05/05 01:27:54;;;;;;;;;;;;;;;;;;5504156;23;19922;-91
2023/05/05 01:30:21;;;;;;;;;;;;;;;;;;4998313;28;19933;-86
2023/05/05 01:33:00;;;;;;;;;;;;;;;;;;4994325;28;19926;-85
2023/05/05 01:35:27;;;;;;;;;;;;;;;;;;4979989;28;20363;-86
2023/05/05 01:38:06;;;;;;;;;;;;;;;;;;4996282;28;19930;-87
2023/05/05 01:40:54;;;;;;;;;;;;;;;;;;4998251;28;19922;-85
2023/05/05 01:43:35;;;;;;;;;;;;;;;;;;4998210;28;19946;-85
2023/05/05 01:46:05;;;;;;;;;;;;;;;;;;4997528;28;19929;-84
2023/05/05 01:48:35;;;;;;;;;;;;;;;;;;4995376;28;19945;-86
2023/05/05 01:51:01;;;;;;;;;;;;;;;;;;4997359;28;19910;-85
2023/05/05 01:53:28;;;;;;;;;;;;;;;;;;4981580;28;19989;-86
2023/05/05 01:55:54;;;;;;;;;;;;;;;;;;4979880;28;19906;-87
2023/05/05 01:58:20;;;;;;;;;;;;;;;;;;4976362;28;19929;-86
2023/05/05 02:00:46;;;;;;;;;;;;;;;;;;4992006;28;19978;-87
2023/05/05 02:03:15;;;;;;;;;;;;;;;;;;4979154;28;19906;-85
2023/05/05 02:05:44;;;;;;;;;;;;;;;;;;4982250;28;20007;-86
2023/05/05 02:08:26;;;;;;;;;;;;;;;;;;4998395;28;19934;-87
2023/05/05 02:10:55;;;;;;;;;;;;;;;;;;4996926;28;19934;-85
2023/05/05 02:13:33;;;;;;;;;;;;;;;;;;4996088;28;19929;-87
2023/05/05 02:16:02;;;;;;;;;;;;;;;;;;4995128;28;19942;-87
2023/05/05 02:18:32;;;;;;;;;;;;;;;;;;4996926;28;19985;-86
2023/05/05 02:21:01;;;;;;;;;;;;;;;;;;4997961;28;19922;-87
2023/05/05 02:23:27;;;;;;;;;;;;;;;;;;4979779;28;19965;-86
2023/05/05 02:25:55;;;;;;;;;;;;;;;;;;4985112;28;19972;-86
2023/05/05 02:28:21;;;;;;;;;;;;;;;;;;4978599;28;19922;-86
2023/05/05 02:30:52;;;;;;;;;;;;;;;;;;4985273;28;19945;-87
2023/05/05 02:33:19;;;;;;;;;;;;;;;;;;4992181;28;19917;-85
2023/05/05 02:35:45;;;;;;;;;;;;;;;;;;4997483;28;19922;-86
2023/05/05 02:38:11;;;;;;;;;;;;;;;;;;4980018;28;19985;-88
2023/05/05 02:40:42;;;;;;;;;;;;;;;;;;4976923;28;20012;-87
2023/05/05 02:43:08;;;;;;;;;;;;;;;;;;4993472;28;19941;-88
2023/05/05 02:45:36;;;;;;;;;;;;;;;;;;4980326;28;19922;-86
2023/05/05 02:48:15;;;;;;;;;;;;;;;;;;4997483;28;21937;-86
2023/05/05 02:51:20;;;;;;;;;;;;;;;;;;5001573;28;19945;-86
2023/05/05 02:53:48;;;;;;;;;;;;;;;;;;5000941;28;19926;-90
2023/05/05 05:39:53;;;;;;;;;;;;;;;;;;4995637;28;19990;-89
2023/05/05 05:42:20;;;;;;;;;;;;;;;;;;4978339;28;19907;-87
2023/05/05 05:44:47;;;;;;;;;;;;;;;;;;4978000;28;19922;-89
2023/05/05 05:47:23;;;;;;;;;;;;;;;;;;4995940;28;19957;-86
2023/05/05 05:50:01;;;;;;;;;;;;;;;;;;4996743;28;20342;-87
2023/05/05 05:52:27;;;;;;;;;;;;;;;;;;4979910;28;19974;-88
2023/05/05 05:54:56;;;;;;;;;;;;;;;;;;4982135;28;19956;-87
2023/05/05 05:57:23;;;;;;;;;;;;;;;;;;4981472;28;19906;-87
2023/05/05 05:59:54;;;;;;;;;;;;;;;;;;4999999;28;19910;-86
2023/05/05 06:02:25;;;;;;;;;;;;;;;;;;4984544;28;19922;-88
2023/05/05 06:04:51;;;;;;;;;;;;;;;;;;4984971;28;19950;-87
2023/05/05 06:07:17;;;;;;;;;;;;;;;;;;4985618;28;19922;-85
2023/05/05 06:09:52;;;;;;;;;;;;;;;;;;5002243;28;19922;-88
2023/05/05 06:12:22;;;;;;;;;;;;;;;;;;4983223;28;19973;-87
2023/05/05 06:14:52;;;;;;;;;;;;;;;;;;4985173;28;19910;-88
2023/05/05 06:19:47;;;;;;;;;;;;;;;;;;4998992;28;19934;-88
2023/05/05 06:22:16;;;;;;;;;;;;;;;;;;4966823;29;19942;-88
2023/05/05 06:24:45;;;;;;;;;;;;;;;;;;4962684;29;19934;-88
2023/05/05 06:27:19;;;;;;;;;;;;;;;;;;4980413;28;19926;-87
2023/05/05 06:30:06;;;;;;;;;;;;;;;;;;4983790;28;19925;-88
2023/05/05 06:32:37;;;;;;;;;;;;;;;;;;4979027;28;19933;-87
2023/05/05 06:35:18;;;;;;;;;;;;;;;;;;4995972;28;19926;-87
2023/05/05 06:40:23;;;;;;;;;;;;;;;;;;6026328;23;20853;-87
2023/05/05 06:42:53;;;;;;;;;;;;;;;;;;4983842;28;19942;-86
2023/05/05 06:45:29;;;;;;;;;;;;;;;;;;5000254;28;19934;-87
2023/05/05 06:47:55;;;;;;;;;;;;;;;;;;4985166;28;20025;-89
2023/05/05 06:50:22;;;;;;;;;;;;;;;;;;4985228;28;19933;-86
2023/05/05 06:52:56;;;;;;;;;;;;;;;;;;4998569;28;19976;-86
2023/05/05 06:55:30;;;;;;;;;;;;;;;;;;4990316;28;19926;-86
2023/05/05 06:57:56;;;;;;;;;;;;;;;;;;4985198;28;19910;-86
2023/05/05 07:00:22;;;;;;;;;;;;;;;;;;4984061;28;19911;-86
2023/05/05 07:03:07;;;;;;;;;;;;;;;;;;5000775;28;19962;-86
2023/05/05 07:05:53;;;;;;;;;;;;;;;;;;4985631;28;19915;-88
2023/05/05 07:08:23;;;;;;;;;;;;;;;;;;4985849;28;19999;-89
2023/05/05 07:10:55;;;;;;;;;;;;;;;;;;4992746;28;19910;-89
2023/05/05 07:16:05;;;;;;;;;;;;;;;;;;5061054;23;19918;-87
2023/05/05 07:18:31;;;;;;;;;;;;;;;;;;4984792;28;19968;-86
2023/05/05 07:21:00;;;;;;;;;;;;;;;;;;4984734;28;19910;-87
2023/05/05 07:23:29;;;;;;;;;;;;;;;;;;4999935;28;19910;-88
2023/05/05 07:25:58;;;;;;;;;;;;;;;;;;4984031;28;19922;-88
2023/05/05 07:28:24;;;;;;;;;;;;;;;;;;4983792;28;19941;-89
2023/05/05 07:30:50;;;;;;;;;;;;;;;;;;5000326;28;19969;-88
2023/05/05 07:33:21;;;;;;;;;;;;;;;;;;5000680;28;19973;-83
2023/05/05 07:36:04;;;;;;;;;;;;;;;;;;4984710;28;19961;-87
2023/05/05 07:38:50;;;;;;;;;;;;;;;;;;4999478;28;19966;-87
2023/05/05 07:41:17;;;;;;;;;;;;;;;;;;5000453;28;19933;-85
2023/05/05 07:43:48;;;;;;;;;;;;;;;;;;4997537;28;19926;-85
2023/05/05 07:46:14;;;;;;;;;;;;;;;;;;4972774;28;19985;-87
2023/05/05 07:48:50;;;;;;;;;;;;;;;;;;4980680;28;19938;-87
2023/05/05 07:51:20;;;;;;;;;;;;;;;;;;4964289;29;19949;-87
2023/05/05 07:53:46;;;;;;;;;;;;;;;;;;4963961;28;19914;-87
2023/05/05 07:56:21;;;;;;;;;;;;;;;;;;4999823;28;19914;-86
2023/05/05 07:58:51;;;;;;;;;;;;;;;;;;4998029;28;19970;-88
2023/05/05 08:22:03;;;;;;;;;;;;;;;;;;5270920;23;20677;-94
2023/05/05 08:27:05;;;;;;;;;;;;;;;;;;5816329;23;20360;-93
2023/05/05 08:37:19;;;;;;;;;;;;;;;;;;5183006;23;19930;-93
2023/05/05 08:44:57;;;;;;;;;;;;;;;;;;5500732;23;19985;-86
2023/05/05 08:47:26;;;;;;;;;;;;;;;;;;4994516;28;19926;-86
2023/05/05 08:49:59;;;;;;;;;;;;;;;;;;4979657;28;20574;-87
2023/05/05 08:52:25;;;;;;;;;;;;;;;;;;4978720;28;19941;-86
2023/05/05 08:54:52;;;;;;;;;;;;;;;;;;4974482;28;19922;-86
2023/05/05 08:57:18;;;;;;;;;;;;;;;;;;4973698;28;19922;-89
2023/05/05 08:59:54;;;;;;;;;;;;;;;;;;4999499;28;19934;-85
2023/05/05 09:02:22;;;;;;;;;;;;;;;;;;4991517;28;19961;-87
2023/05/05 09:04:48;;;;;;;;;;;;;;;;;;4974043;28;19922;-85
2023/05/05 09:07:17;;;;;;;;;;;;;;;;;;4969704;28;19969;-87
2023/05/05 09:09:48;;;;;;;;;;;;;;;;;;4973133;28;19930;-87
2023/05/05 09:12:16;;;;;;;;;;;;;;;;;;4973068;28;19926;-87
2023/05/05 09:15:02;;;;;;;;;;;;;;;;;;4994289;28;19922;-85
2023/05/05 09:22:52;;;;;;;;;;;;;;;;;;5198165;23;20028;-87
2023/05/05 09:25:22;;;;;;;;;;;;;;;;;;4978560;28;19949;-86
2023/05/05 09:27:48;;;;;;;;;;;;;;;;;;4990679;28;19929;-88
2023/05/05 09:30:33;;;;;;;;;;;;;;;;;;4990796;28;19978;-86
2023/05/05 09:36:03;;;;;;;;;;;;;;;;;;4992253;28;19921;-87
2023/05/05 09:38:29;;;;;;;;;;;;;;;;;;5306976;23;19930;-88
2023/05/05 09:43:26;;;;;;;;;;;;;;;;;;4988610;28;19922;-86
2023/05/05 09:45:52;;;;;;;;;;;;;;;;;;4973322;28;20013;-86
2023/05/05 09:48:18;;;;;;;;;;;;;;;;;;4975999;28;19982;-86
2023/05/05 09:50:47;;;;;;;;;;;;;;;;;;4975323;28;19934;-86
2023/05/05 09:53:18;;;;;;;;;;;;;;;;;;4977888;28;19922;-88
2023/05/05 09:55:44;;;;;;;;;;;;;;;;;;4985833;28;19930;-88
2023/05/05 09:58:10;;;;;;;;;;;;;;;;;;4973792;28;19982;-86
2023/05/05 10:00:38;;;;;;;;;;;;;;;;;;4981556;28;19968;-85
2023/05/05 10:03:07;;;;;;;;;;;;;;;;;;4996408;28;19953;-85
2023/05/05 10:05:36;;;;;;;;;;;;;;;;;;4995118;28;19926;-86
2023/05/05 10:08:02;;;;;;;;;;;;;;;;;;4975232;28;19945;-86
2023/05/05 10:10:28;;;;;;;;;;;;;;;;;;4978244;28;19961;-87
2023/05/05 10:18:06;;;;;;;;;;;;;;;;;;5352534;23;19983;-94
2023/05/05 10:20:32;;;;;;;;;;;;;;;;;;5779484;23;19924;-93
2023/05/05 10:25:35;;;;;;;;;;;;;;;;;;5214196;23;19950;-90
2023/05/05 10:28:15;;;;;;;;;;;;;;;;;;5104174;23;19942;-93
2023/05/05 10:30:41;;;;;;;;;;;;;;;;;;4980129;28;19930;-92
2023/05/05 10:33:07;;;;;;;;;;;;;;;;;;4981220;28;19949;-93
2023/05/05 10:38:26;;;;;;;;;;;;;;;;;;5774576;23;20450;-90
2023/05/05 10:40:52;;;;;;;;;;;;;;;;;;4968189;28;19907;-91
2023/05/05 10:43:18;;;;;;;;;;;;;;;;;;4958954;29;19932;-94
2023/05/05 10:45:44;;;;;;;;;;;;;;;;;;4951896;29;20015;-92
2023/05/05 10:48:11;;;;;;;;;;;;;;;;;;4968730;29;19933;-92
2023/05/05 10:50:37;;;;;;;;;;;;;;;;;;4960612;29;19951;-93
2023/05/05 10:53:04;;;;;;;;;;;;;;;;;;4981094;28;19927;-92
2023/05/05 11:03:16;;;;;;;;;;;;;;;;;;4984299;28;19922;-93
2023/05/05 11:05:51;;;;;;;;;;;;;;;;;;4975037;28;19926;-94
2023/05/05 11:08:17;;;;;;;;;;;;;;;;;;4979516;28;19930;-93
2023/05/05 11:31:23;;;;;;;;;;;;;;;;;;5206120;23;19930;-93
2023/05/05 11:33:49;;;;;;;;;;;;;;;;;;4976279;28;19926;-92
2023/05/05 11:36:15;;;;;;;;;;;;;;;;;;4981011;28;19914;-94
2023/05/05 11:38:53;;;;;;;;;;;;;;;;;;4981940;28;19910;-94
2023/05/05 11:41:27;;;;;;;;;;;;;;;;;;4970516;28;19926;-93
2023/05/05 11:43:53;;;;;;;;;;;;;;;;;;4978987;28;19911;-91
2023/05/05 11:46:22;;;;;;;;;;;;;;;;;;5397789;23;19930;-91
2023/05/05 11:48:51;;;;;;;;;;;;;;;;;;4980948;28;19913;-92
2023/05/05 11:51:17;;;;;;;;;;;;;;;;;;4977205;28;19953;-93
2023/05/05 11:53:45;;;;;;;;;;;;;;;;;;4980961;28;19921;-92
2023/05/05 11:56:31;;;;;;;;;;;;;;;;;;4996416;28;19952;-91
2023/05/05 11:58:57;;;;;;;;;;;;;;;;;;4995165;28;19910;-92
2023/05/05 12:01:23;;;;;;;;;;;;;;;;;;4977482;28;19929;-91
2023/05/05 12:03:49;;;;;;;;;;;;;;;;;;4980835;28;19926;-91
2023/05/05 12:06:15;;;;;;;;;;;;;;;;;;5227207;23;19930;-91
2023/05/05 12:11:18;;;;;;;;;;;;;;;;;;5221371;23;19930;-91
2023/05/05 12:13:56;;;;;;;;;;;;;;;;;;4995307;28;20102;-90
2023/05/05 12:16:22;;;;;;;;;;;;;;;;;;4986526;28;19934;-92
2023/05/05 12:21:25;;;;;;;;;;;;;;;;;;5006924;23;19932;-91
2023/05/05 12:26:27;;;;;;;;;;;;;;;;;;5413072;23;19994;-94
2023/05/05 12:28:53;;;;;;;;;;;;;;;;;;4981414;28;19937;-93
2023/05/05 13:28:29;;;;;;;;;;;;;;;;;;4982214;28;19941;-87
2023/05/05 13:30:56;;;;;;;;;;;;;;;;;;4967089;28;19993;-88
2023/05/05 13:33:32;;;;;;;;;;;;;;;;;;4966926;28;19926;-87
2023/05/05 13:35:58;;;;;;;;;;;;;;;;;;4974729;28;19926;-86
2023/05/05 13:38:26;;;;;;;;;;;;;;;;;;4970648;28;19933;-85
2023/05/05 13:40:55;;;;;;;;;;;;;;;;;;4954687;29;19977;-86
2023/05/05 13:43:21;;;;;;;;;;;;;;;;;;4982296;28;19922;-87
2023/05/05 13:45:47;;;;;;;;;;;;;;;;;;4968064;28;19922;-88
2023/05/05 13:48:13;;;;;;;;;;;;;;;;;;4969946;28;19910;-88
2023/05/05 13:50:39;;;;;;;;;;;;;;;;;;4967493;28;19973;-87
2023/05/05 13:53:05;;;;;;;;;;;;;;;;;;4967891;28;19930;-85
2023/05/05 13:55:31;;;;;;;;;;;;;;;;;;4967647;28;19933;-87
2023/05/05 13:58:01;;;;;;;;;;;;;;;;;;4974972;28;20019;-88
2023/05/05 14:00:27;;;;;;;;;;;;;;;;;;4970347;28;19937;-88
2023/05/05 14:02:56;;;;;;;;;;;;;;;;;;4972768;28;19913;-87
2023/05/05 14:05:25;;;;;;;;;;;;;;;;;;4996591;28;19918;-86
2023/05/05 14:07:53;;;;;;;;;;;;;;;;;;4957748;28;20368;-86
2023/05/05 14:10:18;;;;;;;;;;;;;;;;;;4956569;29;20013;-86
2023/05/05 14:12:47;;;;;;;;;;;;;;;;;;4992297;28;19937;-88
2023/05/05 14:15:17;;;;;;;;;;;;;;;;;;4976392;28;19906;-86
2023/05/05 14:17:43;;;;;;;;;;;;;;;;;;4985276;28;19990;-87
2023/05/05 14:20:09;;;;;;;;;;;;;;;;;;4990990;28;19929;-86
2023/05/05 14:22:38;;;;;;;;;;;;;;;;;;4986733;28;19926;-88
2023/05/05 14:25:10;;;;;;;;;;;;;;;;;;4965755;29;19934;-87
2023/05/05 14:28:01;;;;;;;;;;;;;;;;;;4979579;28;19910;-85
2023/05/05 14:30:30;;;;;;;;;;;;;;;;;;4984264;28;19933;-88
2023/05/05 14:32:56;;;;;;;;;;;;;;;;;;4984428;28;19926;-88
2023/05/05 14:35:26;;;;;;;;;;;;;;;;;;4999599;28;19906;-85
2023/05/05 14:37:55;;;;;;;;;;;;;;;;;;4986270;28;19969;-88
2023/05/05 14:40:21;;;;;;;;;;;;;;;;;;4977217;28;19922;-88
2023/05/05 14:42:50;;;;;;;;;;;;;;;;;;4976520;28;19906;-85
2023/05/05 14:45:35;;;;;;;;;;;;;;;;;;5000709;28;19934;-85
2023/05/05 14:48:04;;;;;;;;;;;;;;;;;;4984200;28;19929;-86
2023/05/05 14:50:33;;;;;;;;;;;;;;;;;;4979172;28;19978;-85
2023/05/05 14:53:03;;;;;;;;;;;;;;;;;;4999805;28;20398;-87
2023/05/05 14:55:32;;;;;;;;;;;;;;;;;;4999757;28;19945;-87
2023/05/05 14:57:59;;;;;;;;;;;;;;;;;;4992048;28;19933;-88
2023/05/05 15:00:25;;;;;;;;;;;;;;;;;;4975195;28;19934;-89
2023/05/05 15:02:51;;;;;;;;;;;;;;;;;;4963650;28;19922;-88
2023/05/05 15:05:34;;;;;;;;;;;;;;;;;;4956936;29;19923;-89
2023/05/05 15:08:00;;;;;;;;;;;;;;;;;;4974978;28;20348;-89
2023/05/05 15:10:26;;;;;;;;;;;;;;;;;;4967841;28;20414;-88
2023/05/05 15:12:52;;;;;;;;;;;;;;;;;;4991191;28;19949;-89
2023/05/05 15:15:18;;;;;;;;;;;;;;;;;;4971472;28;20288;-88
2023/05/05 15:17:47;;;;;;;;;;;;;;;;;;4980680;28;19929;-87
2023/05/05 15:20:16;;;;;;;;;;;;;;;;;;4972067;28;19922;-88
2023/05/05 15:22:42;;;;;;;;;;;;;;;;;;4980169;28;19978;-88
2023/05/05 15:25:36;;;;;;;;;;;;;;;;;;4994510;28;19925;-89
2023/05/05 15:28:02;;;;;;;;;;;;;;;;;;4980430;28;19933;-87
2023/05/05 15:33:32;;;;;;;;;;;;;;;;;;5006550;28;19934;-90
2023/05/05 15:39:05;;;;;;;;;;;;;;;;;;4977442;28;20378;-87
2023/05/05 15:41:31;;;;;;;;;;;;;;;;;;4972293;28;19922;-87
2023/05/05 15:44:01;;;;;;;;;;;;;;;;;;4974447;28;19929;-85
2023/05/05 15:46:28;;;;;;;;;;;;;;;;;;4975212;28;19926;-84
2023/05/05 15:49:04;;;;;;;;;;;;;;;;;;4991454;28;19972;-87
2023/05/05 15:51:31;;;;;;;;;;;;;;;;;;4988479;28;19922;-86
2023/05/05 15:53:58;;;;;;;;;;;;;;;;;;4968592;28;19930;-86
2023/05/05 15:56:26;;;;;;;;;;;;;;;;;;4972967;28;20041;-88
2023/05/05 15:59:04;;;;;;;;;;;;;;;;;;4969714;28;19929;-86
2023/05/05 16:01:35;;;;;;;;;;;;;;;;;;4984831;28;20439;-86
2023/05/05 16:04:02;;;;;;;;;;;;;;;;;;4983518;28;20446;-88
2023/05/05 16:06:33;;;;;;;;;;;;;;;;;;4966368;28;19929;-86
2023/05/05 16:08:59;;;;;;;;;;;;;;;;;;4959806;29;19927;-87
2023/05/05 16:11:25;;;;;;;;;;;;;;;;;;4958404;28;19934;-87
2023/05/05 16:13:58;;;;;;;;;;;;;;;;;;4972227;28;19950;-86
2023/05/05 16:16:24;;;;;;;;;;;;;;;;;;4958581;29;19929;-86
2023/05/05 16:19:03;;;;;;;;;;;;;;;;;;4977583;28;19962;-87
2023/05/05 16:21:36;;;;;;;;;;;;;;;;;;4984403;28;19986;-87
2023/05/05 16:26:50;;;;;;;;;;;;;;;;;;4990341;28;19922;-87
2023/05/05 16:44:36;;;;;;;;;;;;;;;;;;4977499;28;19925;-86
2023/05/05 16:47:03;;;;;;;;;;;;;;;;;;4961709;28;19923;-85
2023/05/05 16:49:29;;;;;;;;;;;;;;;;;;5009266;28;20277;-87
2023/05/05 16:51:56;;;;;;;;;;;;;;;;;;4982885;28;19950;-86
2023/05/05 16:54:25;;;;;;;;;;;;;;;;;;4958498;29;19958;-86
2023/05/05 16:56:54;;;;;;;;;;;;;;;;;;4958629;29;19946;-86
2023/05/05 16:59:20;;;;;;;;;;;;;;;;;;4974123;28;19999;-85
2023/05/05 17:02:04;;;;;;;;;;;;;;;;;;4979361;28;19921;-87
2023/05/05 17:04:43;;;;;;;;;;;;;;;;;;4979660;28;19918;-86
2023/05/05 17:07:09;;;;;;;;;;;;;;;;;;4963563;29;19922;-87
2023/05/05 17:09:38;;;;;;;;;;;;;;;;;;4980768;28;19926;-88
2023/05/05 17:12:07;;;;;;;;;;;;;;;;;;4977728;28;19922;-86
2023/05/05 17:14:37;;;;;;;;;;;;;;;;;;4995317;28;19918;-88
2023/05/05 17:17:27;;;;;;;;;;;;;;;;;;4983411;28;19906;-87
2023/05/05 17:19:56;;;;;;;;;;;;;;;;;;4984760;28;19928;-87
2023/05/05 17:22:22;;;;;;;;;;;;;;;;;;4983459;28;19923;-87
2023/05/05 17:27:55;;;;;;;;;;;;;;;;;;4983261;28;19921;-86
2023/05/05 17:33:41;;;;;;;;;;;;;;;;;;4976564;29;19917;-87
2023/05/05 17:36:23;;;;;;;;;;;;;;;;;;4964870;28;19922;-87
2023/05/05 17:38:52;;;;;;;;;;;;;;;;;;4979500;28;19922;-88
2023/05/05 17:41:20;;;;;;;;;;;;;;;;;;4977051;28;19922;-89
2023/05/05 17:43:47;;;;;;;;;;;;;;;;;;4961848;29;19926;-88
2023/05/05 17:49:20;;;;;;;;;;;;;;;;;;4996207;28;19982;-88
2023/05/05 18:15:40;;;;;;;;;;;;;;;;;;931416;26;21002;-88
2023/05/05 18:18:06;;;;;;;;;;;;;;;;;;4997656;28;19993;-88
2023/05/05 18:20:34;;;;;;;;;;;;;;;;;;4979713;28;19928;-87
2023/05/05 18:23:11;;;;;;;;;;;;;;;;;;4981056;28;19929;-88
2023/05/05 18:26:02;;;;;;;;;;;;;;;;;;;;;
2023/05/05 18:31:51;;;;;;;;;;;;;;;;;;5003955;28;19905;-89
2023/05/05 18:34:23;;;;;;;;;;;;;;;;;;4996972;28;19922;-89
2023/05/05 18:36:49;;;;;;;;;;;;;;;;;;4981169;28;19929;-87
2023/05/05 18:39:16;;;;;;;;;;;;;;;;;;4980364;28;19922;-88
2023/05/05 18:41:44;;;;;;;;;;;;;;;;;;4980865;28;19922;-87
2023/05/05 18:47:13;;;;;;;;;;;;;;;;;;4997972;28;19926;-88
2023/05/05 18:49:40;;;;;;;;;;;;;;;;;;4981403;28;19922;-87
2023/05/05 18:52:12;;;;;;;;;;;;;;;;;;4982453;28;19929;-88
2023/05/05 18:54:41;;;;;;;;;;;;;;;;;;4981479;28;19945;-88
2023/05/05 18:57:11;;;;;;;;;;;;;;;;;;4987317;28;19921;-87
2023/05/05 18:59:40;;;;;;;;;;;;;;;;;;4997777;28;19969;-87
2023/05/05 19:02:06;;;;;;;;;;;;;;;;;;4982346;28;19922;-87
2023/05/05 19:04:36;;;;;;;;;;;;;;;;;;4997384;28;19939;-87
2023/05/05 19:07:02;;;;;;;;;;;;;;;;;;4980594;28;19922;-88
2023/05/05 19:09:38;;;;;;;;;;;;;;;;;;4983567;28;19946;-88
2023/05/05 19:12:13;;;;;;;;;;;;;;;;;;4976648;29;19930;-89
2023/05/05 19:14:39;;;;;;;;;;;;;;;;;;4969181;28;19907;-89
2023/05/05 19:19:41;;;;;;;;;;;;;;;;;;5055477;23;19965;-90
2023/05/05 19:22:11;;;;;;;;;;;;;;;;;;4997200;28;19929;-88
2023/05/05 19:27:37;;;;;;;;;;;;;;;;;;5015280;28;19933;-89
2023/05/05 19:30:13;;;;;;;;;;;;;;;;;;5014665;28;19929;-88
2023/05/05 19:32:58;;;;;;;;;;;;;;;;;;5018683;28;19929;-87
2023/05/05 19:35:38;;;;;;;;;;;;;;;;;;4999009;28;19929;-86
2023/05/05 19:38:21;;;;;;;;;;;;;;;;;;5017818;28;19955;-88
2023/05/05 19:41:11;;;;;;;;;;;;;;;;;;5011087;28;19906;-88
2023/05/05 19:43:46;;;;;;;;;;;;;;;;;;5010652;28;19965;-88
2023/05/05 19:46:13;;;;;;;;;;;;;;;;;;4978998;28;19922;-88
2023/05/05 19:48:58;;;;;;;;;;;;;;;;;;5605163;23;19944;-89
2023/05/05 19:51:26;;;;;;;;;;;;;;;;;;4997689;28;19945;-88
2023/05/05 19:54:00;;;;;;;;;;;;;;;;;;5010566;28;20367;-87
2023/05/05 19:56:26;;;;;;;;;;;;;;;;;;5015972;28;19944;-86
2023/05/05 19:58:56;;;;;;;;;;;;;;;;;;4999925;28;19977;-87
2023/05/05 20:01:25;;;;;;;;;;;;;;;;;;5014311;28;19921;-87
2023/05/05 20:03:53;;;;;;;;;;;;;;;;;;4999336;28;19922;-88
2023/05/05 20:11:36;;;;;;;;;;;;;;;;;;5000339;28;19932;-87
2023/05/05 20:14:05;;;;;;;;;;;;;;;;;;5006174;28;19922;-89
2023/05/05 20:19:43;;;;;;;;;;;;;;;;;;5014718;28;19905;-88
2023/05/05 20:22:10;;;;;;;;;;;;;;;;;;5000227;28;19960;-89
2023/05/05 20:24:45;;;;;;;;;;;;;;;;;;5000472;28;19945;-87
2023/05/05 20:27:12;;;;;;;;;;;;;;;;;;5006470;28;19928;-87
2023/05/05 20:29:39;;;;;;;;;;;;;;;;;;4992753;28;19922;-86
2023/05/05 20:35:11;;;;;;;;;;;;;;;;;;5022074;28;19928;-87
2023/05/05 20:37:44;;;;;;;;;;;;;;;;;;4998753;28;19933;-86
2023/05/05 20:40:13;;;;;;;;;;;;;;;;;;4997979;28;19957;-88
2023/05/05 20:42:42;;;;;;;;;;;;;;;;;;4995708;28;19922;-87
2023/05/05 20:45:12;;;;;;;;;;;;;;;;;;4997672;28;19922;-94
2023/05/05 20:47:44;;;;;;;;;;;;;;;;;;4983261;28;20046;-93
2023/05/05 20:50:17;;;;;;;;;;;;;;;;;;5000995;28;19950;-92
2023/05/05 20:52:44;;;;;;;;;;;;;;;;;;5019415;28;19928;-95
2023/05/05 21:52:18;;;;;;;;;;;;;;;;;;4994855;28;19949;-88
2023/05/05 21:57:54;;;;;;;;;;;;;;;;;;4993996;28;19938;-88
2023/05/05 22:00:20;;;;;;;;;;;;;;;;;;4975413;28;19985;-88
2023/05/05 22:02:46;;;;;;;;;;;;;;;;;;4996684;28;19914;-87
2023/05/05 22:05:13;;;;;;;;;;;;;;;;;;4996810;28;20303;-87
2023/05/05 22:07:57;;;;;;;;;;;;;;;;;;4994775;28;19912;-87
2023/05/05 22:10:48;;;;;;;;;;;;;;;;;;4996945;28;19930;-88
2023/05/05 22:13:14;;;;;;;;;;;;;;;;;;4981012;28;19922;-88
2023/05/05 22:15:44;;;;;;;;;;;;;;;;;;4992377;28;19994;-88
2023/05/05 22:21:21;;;;;;;;;;;;;;;;;;4999702;28;19925;-87
2023/05/05 22:23:52;;;;;;;;;;;;;;;;;;4980711;28;19926;-87
2023/05/05 22:26:35;;;;;;;;;;;;;;;;;;4996382;28;19929;-88
2023/05/05 22:29:20;;;;;;;;;;;;;;;;;;4995864;28;19921;-86
2023/05/05 22:34:51;;;;;;;;;;;;;;;;;;4996851;28;19924;-88
2023/05/05 22:37:17;;;;;;;;;;;;;;;;;;4995256;28;19932;-87
2023/05/05 22:39:44;;;;;;;;;;;;;;;;;;4992691;28;19988;-87
2023/05/05 22:42:17;;;;;;;;;;;;;;;;;;4996769;28;19930;-85
2023/05/05 22:44:47;;;;;;;;;;;;;;;;;;4998564;28;19922;-86
2023/05/05 22:47:13;;;;;;;;;;;;;;;;;;4982682;28;19928;-86
2023/05/05 22:49:40;;;;;;;;;;;;;;;;;;4978160;28;20416;-86
2023/05/05 22:52:06;;;;;;;;;;;;;;;;;;4981812;28;19932;-87
2023/05/05 22:54:50;;;;;;;;;;;;;;;;;;4998993;28;19966;-87
2023/05/05 22:57:22;;;;;;;;;;;;;;;;;;4981562;28;19985;-87
2023/05/05 23:02:55;;;;;;;;;;;;;;;;;;4999386;28;19964;-86
2023/05/05 23:05:21;;;;;;;;;;;;;;;;;;4997385;28;19922;-87
2023/05/05 23:07:48;;;;;;;;;;;;;;;;;;4981508;28;19922;-89
2023/05/05 23:10:15;;;;;;;;;;;;;;;;;;4997140;28;20009;-85
2023/05/05 23:12:41;;;;;;;;;;;;;;;;;;4997438;28;19945;-86
2023/05/05 23:15:10;;;;;;;;;;;;;;;;;;4998673;28;19926;-86
2023/05/05 23:17:40;;;;;;;;;;;;;;;;;;4997889;28;19910;-87
2023/05/05 23:20:08;;;;;;;;;;;;;;;;;;4998378;28;19906;-88
2023/05/05 23:22:42;;;;;;;;;;;;;;;;;;4999333;28;19922;-87
2023/05/05 23:25:17;;;;;;;;;;;;;;;;;;4983962;28;19906;-88
2023/05/05 23:27:44;;;;;;;;;;;;;;;;;;4987146;28;19929;-88
2023/05/05 23:30:15;;;;;;;;;;;;;;;;;;4988414;28;19913;-88
2023/05/05 23:32:55;;;;;;;;;;;;;;;;;;4998234;28;19918;-86
2023/05/05 23:35:28;;;;;;;;;;;;;;;;;;4981824;28;19933;-87
2023/05/05 23:37:54;;;;;;;;;;;;;;;;;;4997846;28;19906;-87
